sensor_id;sensor_type;location;lat;lon;timestamp;temperature;humidity
68764;DHT22;55754;52.038;5.566;2023-01-15T00:01:43;8.50;95.70
68764;DHT22;55754;52.038;5.566;2023-01-15T00:04:11;8.50;95.40
68764;DHT22;55754;52.038;5.566;2023-01-15T00:06:38;8.50;95.50
68764;DHT22;55754;52.038;5.566;2023-01-15T00:09:06;8.40;95.00
68764;DHT22;55754;52.038;5.566;2023-01-15T00:11:35;8.50;95.10
68764;DHT22;55754;52.038;5.566;2023-01-15T00:14:00;8.50;95.30
68764;DHT22;55754;52.038;5.566;2023-01-15T00:16:26;8.50;95.10
68764;DHT22;55754;52.038;5.566;2023-01-15T00:18:57;8.50;95.40
68764;DHT22;55754;52.038;5.566;2023-01-15T00:21:24;8.40;95.00
68764;DHT22;55754;52.038;5.566;2023-01-15T00:23:50;8.50;95.00
68764;DHT22;55754;52.038;5.566;2023-01-15T00:26:35;8.40;95.00
68764;DHT22;55754;52.038;5.566;2023-01-15T00:29:21;8.50;95.00
68764;DHT22;55754;52.038;5.566;2023-01-15T00:32:05;8.40;94.80
68764;DHT22;55754;52.038;5.566;2023-01-15T00:34:31;8.40;94.60
68764;DHT22;55754;52.038;5.566;2023-01-15T00:36:57;8.40;94.40
68764;DHT22;55754;52.038;5.566;2023-01-15T00:39:26;8.40;94.60
68764;DHT22;55754;52.038;5.566;2023-01-15T00:41:52;8.40;94.80
68764;DHT22;55754;52.038;5.566;2023-01-15T00:44:18;8.40;95.00
68764;DHT22;55754;52.038;5.566;2023-01-15T00:46:44;8.40;95.20
68764;DHT22;55754;52.038;5.566;2023-01-15T00:49:10;8.40;94.90
68764;DHT22;55754;52.038;5.566;2023-01-15T00:51:36;8.40;94.60
68764;DHT22;55754;52.038;5.566;2023-01-15T00:54:02;8.40;94.50
68764;DHT22;55754;52.038;5.566;2023-01-15T00:56:28;8.40;94.40
68764;DHT22;55754;52.038;5.566;2023-01-15T00:58:54;8.40;94.50
68764;DHT22;55754;52.038;5.566;2023-01-15T01:01:19;8.40;94.30
68764;DHT22;55754;52.038;5.566;2023-01-15T01:03:45;8.40;94.30
68764;DHT22;55754;52.038;5.566;2023-01-15T01:06:14;8.40;94.30
68764;DHT22;55754;52.038;5.566;2023-01-15T01:08:41;8.40;94.70
68764;DHT22;55754;52.038;5.566;2023-01-15T01:11:10;8.30;94.30
68764;DHT22;55754;52.038;5.566;2023-01-15T01:13:37;9.10;94.40
68764;DHT22;55754;52.038;5.566;2023-01-15T01:16:04;8.30;93.80
68764;DHT22;55754;52.038;5.566;2023-01-15T01:18:29;8.30;94.20
68764;DHT22;55754;52.038;5.566;2023-01-15T01:21:03;8.30;94.40
68764;DHT22;55754;52.038;5.566;2023-01-15T01:23:29;8.30;93.30
68764;DHT22;55754;52.038;5.566;2023-01-15T01:25:57;8.30;94.10
68764;DHT22;55754;52.038;5.566;2023-01-15T01:28:22;9.60;94.10
68764;DHT22;55754;52.038;5.566;2023-01-15T01:30:47;8.30;93.20
68764;DHT22;55754;52.038;5.566;2023-01-15T01:33:13;8.30;93.40
68764;DHT22;55754;52.038;5.566;2023-01-15T01:35:39;8.20;93.00
68764;DHT22;55754;52.038;5.566;2023-01-15T01:38:04;8.20;93.00
68764;DHT22;55754;52.038;5.566;2023-01-15T01:40:30;8.20;92.80
68764;DHT22;55754;52.038;5.566;2023-01-15T01:42:55;8.20;93.20
68764;DHT22;55754;52.038;5.566;2023-01-15T01:45:22;8.20;92.80
68764;DHT22;55754;52.038;5.566;2023-01-15T01:47:54;8.10;92.90
68764;DHT22;55754;52.038;5.566;2023-01-15T01:50:20;8.20;93.00
68764;DHT22;55754;52.038;5.566;2023-01-15T01:52:53;8.20;93.20
68764;DHT22;55754;52.038;5.566;2023-01-15T01:55:22;8.20;92.70
68764;DHT22;55754;52.038;5.566;2023-01-15T01:57:52;8.10;92.40
68764;DHT22;55754;52.038;5.566;2023-01-15T02:00:19;8.10;91.80
68764;DHT22;55754;52.038;5.566;2023-01-15T02:02:46;8.10;92.60
68764;DHT22;55754;52.038;5.566;2023-01-15T02:05:17;8.10;92.10
68764;DHT22;55754;52.038;5.566;2023-01-15T02:07:45;8.10;92.00
68764;DHT22;55754;52.038;5.566;2023-01-15T02:10:15;8.10;92.50
68764;DHT22;55754;52.038;5.566;2023-01-15T02:12:43;8.10;92.50
68764;DHT22;55754;52.038;5.566;2023-01-15T02:15:20;8.10;92.50
68764;DHT22;55754;52.038;5.566;2023-01-15T02:20:51;8.00;92.00
68764;DHT22;55754;52.038;5.566;2023-01-15T02:28:40;8.00;91.70
68764;DHT22;55754;52.038;5.566;2023-01-15T02:31:30;8.00;91.50
68764;DHT22;55754;52.038;5.566;2023-01-15T02:34:01;8.00;91.50
68764;DHT22;55754;52.038;5.566;2023-01-15T02:36:31;8.00;91.70
68764;DHT22;55754;52.038;5.566;2023-01-15T02:39:01;8.00;92.00
68764;DHT22;55754;52.038;5.566;2023-01-15T02:41:32;8.00;91.90
68764;DHT22;55754;52.038;5.566;2023-01-15T02:44:00;8.00;92.00
68764;DHT22;55754;52.038;5.566;2023-01-15T02:46:30;8.00;92.10
68764;DHT22;55754;52.038;5.566;2023-01-15T02:48:57;7.90;91.80
68764;DHT22;55754;52.038;5.566;2023-01-15T02:51:27;7.90;91.80
68764;DHT22;55754;52.038;5.566;2023-01-15T02:53:58;8.00;92.00
68764;DHT22;55754;52.038;5.566;2023-01-15T02:56:29;7.90;92.30
68764;DHT22;55754;52.038;5.566;2023-01-15T02:59:00;7.90;92.10
68764;DHT22;55754;52.038;5.566;2023-01-15T03:01:35;7.90;91.80
68764;DHT22;55754;52.038;5.566;2023-01-15T03:04:09;7.90;91.10
68764;DHT22;55754;52.038;5.566;2023-01-15T03:06:51;7.90;91.90
68764;DHT22;55754;52.038;5.566;2023-01-15T03:09:20;7.90;91.90
68764;DHT22;55754;52.038;5.566;2023-01-15T03:12:29;7.80;91.50
68764;DHT22;55754;52.038;5.566;2023-01-15T03:15:09;7.80;91.30
68764;DHT22;55754;52.038;5.566;2023-01-15T03:17:57;7.80;91.40
68764;DHT22;55754;52.038;5.566;2023-01-15T03:20:25;7.80;91.70
68764;DHT22;55754;52.038;5.566;2023-01-15T03:22:57;7.80;91.80
68764;DHT22;55754;52.038;5.566;2023-01-15T03:25:28;7.80;91.80
68764;DHT22;55754;52.038;5.566;2023-01-15T03:27:58;7.70;91.90
68764;DHT22;55754;52.038;5.566;2023-01-15T03:30:24;7.70;92.00
68764;DHT22;55754;52.038;5.566;2023-01-15T03:32:50;7.70;91.70
68764;DHT22;55754;52.038;5.566;2023-01-15T03:35:53;7.70;91.70
68764;DHT22;55754;52.038;5.566;2023-01-15T03:38:24;7.70;91.70
68764;DHT22;55754;52.038;5.566;2023-01-15T03:41:16;7.70;92.00
68764;DHT22;55754;52.038;5.566;2023-01-15T03:44:05;7.70;91.70
68764;DHT22;55754;52.038;5.566;2023-01-15T03:49:24;7.70;91.40
68764;DHT22;55754;52.038;5.566;2023-01-15T03:55:09;7.70;90.70
68764;DHT22;55754;52.038;5.566;2023-01-15T03:57:42;7.70;91.60
68764;DHT22;55754;52.038;5.566;2023-01-15T04:00:20;7.70;91.60
68764;DHT22;55754;52.038;5.566;2023-01-15T04:02:47;7.70;91.70
68764;DHT22;55754;52.038;5.566;2023-01-15T04:05:14;7.70;91.60
68764;DHT22;55754;52.038;5.566;2023-01-15T04:07:40;7.70;91.40
68764;DHT22;55754;52.038;5.566;2023-01-15T04:10:09;7.70;91.30
68764;DHT22;55754;52.038;5.566;2023-01-15T04:12:35;7.70;91.70
68764;DHT22;55754;52.038;5.566;2023-01-15T04:15:01;7.70;92.00
68764;DHT22;55754;52.038;5.566;2023-01-15T04:17:26;7.70;91.70
68764;DHT22;55754;52.038;5.566;2023-01-15T04:19:52;7.70;91.80
68764;DHT22;55754;52.038;5.566;2023-01-15T04:22:17;7.60;91.70
68764;DHT22;55754;52.038;5.566;2023-01-15T04:24:43;7.60;91.90
68764;DHT22;55754;52.038;5.566;2023-01-15T04:27:08;7.60;91.80
68764;DHT22;55754;52.038;5.566;2023-01-15T04:29:34;7.60;91.90
68764;DHT22;55754;52.038;5.566;2023-01-15T04:32:00;7.60;91.90
68764;DHT22;55754;52.038;5.566;2023-01-15T04:34:26;7.60;91.70
68764;DHT22;55754;52.038;5.566;2023-01-15T04:36:53;7.50;91.80
68764;DHT22;55754;52.038;5.566;2023-01-15T04:39:19;7.50;91.90
68764;DHT22;55754;52.038;5.566;2023-01-15T04:41:45;7.50;91.90
68764;DHT22;55754;52.038;5.566;2023-01-15T04:44:29;7.50;91.80
68764;DHT22;55754;52.038;5.566;2023-01-15T04:46:55;7.40;92.00
68764;DHT22;55754;52.038;5.566;2023-01-15T04:49:21;7.40;92.00
68764;DHT22;55754;52.038;5.566;2023-01-15T04:51:47;7.40;92.10
68764;DHT22;55754;52.038;5.566;2023-01-15T04:54:14;7.40;92.10
68764;DHT22;55754;52.038;5.566;2023-01-15T04:56:43;7.40;92.30
68764;DHT22;55754;52.038;5.566;2023-01-15T04:59:09;7.40;92.10
68764;DHT22;55754;52.038;5.566;2023-01-15T05:01:39;7.30;91.70
68764;DHT22;55754;52.038;5.566;2023-01-15T05:04:05;7.30;92.00
68764;DHT22;55754;52.038;5.566;2023-01-15T05:06:30;7.30;92.20
68764;DHT22;55754;52.038;5.566;2023-01-15T05:09:00;7.30;92.50
68764;DHT22;55754;52.038;5.566;2023-01-15T05:11:26;7.30;92.40
68764;DHT22;55754;52.038;5.566;2023-01-15T05:13:52;7.30;92.40
68764;DHT22;55754;52.038;5.566;2023-01-15T05:16:26;7.30;92.50
68764;DHT22;55754;52.038;5.566;2023-01-15T05:18:53;7.30;92.50
68764;DHT22;55754;52.038;5.566;2023-01-15T05:21:26;7.20;92.30
68764;DHT22;55754;52.038;5.566;2023-01-15T05:23:54;7.20;92.30
68764;DHT22;55754;52.038;5.566;2023-01-15T05:26:21;7.20;92.50
68764;DHT22;55754;52.038;5.566;2023-01-15T05:28:48;7.20;92.40
68764;DHT22;55754;52.038;5.566;2023-01-15T05:31:16;7.20;92.40
68764;DHT22;55754;52.038;5.566;2023-01-15T05:33:42;7.20;92.20
68764;DHT22;55754;52.038;5.566;2023-01-15T05:36:10;7.20;92.40
68764;DHT22;55754;52.038;5.566;2023-01-15T05:38:36;7.20;92.30
68764;DHT22;55754;52.038;5.566;2023-01-15T05:41:04;7.20;92.40
68764;DHT22;55754;52.038;5.566;2023-01-15T05:43:50;7.20;92.50
68764;DHT22;55754;52.038;5.566;2023-01-15T05:46:16;7.20;92.20
68764;DHT22;55754;52.038;5.566;2023-01-15T05:48:41;7.20;92.40
68764;DHT22;55754;52.038;5.566;2023-01-15T05:51:07;7.20;92.40
68764;DHT22;55754;52.038;5.566;2023-01-15T05:53:33;7.20;92.40
68764;DHT22;55754;52.038;5.566;2023-01-15T05:56:05;7.20;92.30
68764;DHT22;55754;52.038;5.566;2023-01-15T05:58:31;7.10;92.20
68764;DHT22;55754;52.038;5.566;2023-01-15T06:00:57;7.10;92.30
68764;DHT22;55754;52.038;5.566;2023-01-15T06:03:23;7.10;92.50
68764;DHT22;55754;52.038;5.566;2023-01-15T06:05:53;7.10;92.20
68764;DHT22;55754;52.038;5.566;2023-01-15T06:08:19;7.10;91.80
68764;DHT22;55754;52.038;5.566;2023-01-15T06:10:45;7.10;92.20
68764;DHT22;55754;52.038;5.566;2023-01-15T06:13:11;7.10;92.20
68764;DHT22;55754;52.038;5.566;2023-01-15T06:15:40;7.10;92.10
68764;DHT22;55754;52.038;5.566;2023-01-15T06:18:06;7.10;92.20
68764;DHT22;55754;52.038;5.566;2023-01-15T06:20:35;7.10;92.00
68764;DHT22;55754;52.038;5.566;2023-01-15T06:23:00;7.00;92.10
68764;DHT22;55754;52.038;5.566;2023-01-15T06:25:26;7.00;92.10
68764;DHT22;55754;52.038;5.566;2023-01-15T06:27:52;7.00;92.20
68764;DHT22;55754;52.038;5.566;2023-01-15T06:30:17;7.00;92.30
68764;DHT22;55754;52.038;5.566;2023-01-15T06:32:43;6.90;91.90
68764;DHT22;55754;52.038;5.566;2023-01-15T06:35:09;6.90;92.10
68764;DHT22;55754;52.038;5.566;2023-01-15T06:37:34;6.90;92.10
68764;DHT22;55754;52.038;5.566;2023-01-15T06:40:00;6.80;91.90
68764;DHT22;55754;52.038;5.566;2023-01-15T06:42:25;6.90;91.90
68764;DHT22;55754;52.038;5.566;2023-01-15T06:45:10;6.80;91.60
68764;DHT22;55754;52.038;5.566;2023-01-15T06:47:56;6.90;91.70
68764;DHT22;55754;52.038;5.566;2023-01-15T06:50:24;6.80;91.00
68764;DHT22;55754;52.038;5.566;2023-01-15T06:52:50;6.80;90.70
68764;DHT22;55754;52.038;5.566;2023-01-15T06:55:16;6.80;90.80
68764;DHT22;55754;52.038;5.566;2023-01-15T06:57:43;6.80;90.50
68764;DHT22;55754;52.038;5.566;2023-01-15T07:00:10;6.70;90.40
68764;DHT22;55754;52.038;5.566;2023-01-15T07:02:36;6.70;90.50
68764;DHT22;55754;52.038;5.566;2023-01-15T07:05:01;6.70;90.70
68764;DHT22;55754;52.038;5.566;2023-01-15T07:07:28;6.70;90.90
68764;DHT22;55754;52.038;5.566;2023-01-15T07:09:54;6.70;90.80
68764;DHT22;55754;52.038;5.566;2023-01-15T07:12:20;6.70;91.10
68764;DHT22;55754;52.038;5.566;2023-01-15T07:14:46;6.70;91.30
68764;DHT22;55754;52.038;5.566;2023-01-15T07:17:12;6.70;91.40
68764;DHT22;55754;52.038;5.566;2023-01-15T07:19:41;6.60;91.40
68764;DHT22;55754;52.038;5.566;2023-01-15T07:22:08;6.60;91.70
68764;DHT22;55754;52.038;5.566;2023-01-15T07:24:34;6.60;91.80
68764;DHT22;55754;52.038;5.566;2023-01-15T07:26:59;6.60;91.80
68764;DHT22;55754;52.038;5.566;2023-01-15T07:29:25;6.60;92.00
68764;DHT22;55754;52.038;5.566;2023-01-15T07:31:50;6.60;92.20
68764;DHT22;55754;52.038;5.566;2023-01-15T07:34:16;6.60;92.00
68764;DHT22;55754;52.038;5.566;2023-01-15T07:36:44;6.50;92.10
68764;DHT22;55754;52.038;5.566;2023-01-15T07:39:11;6.50;92.20
68764;DHT22;55754;52.038;5.566;2023-01-15T07:41:37;6.50;92.20
68764;DHT22;55754;52.038;5.566;2023-01-15T07:44:21;6.60;92.20
68764;DHT22;55754;52.038;5.566;2023-01-15T07:47:17;6.50;92.20
68764;DHT22;55754;52.038;5.566;2023-01-15T07:50:02;6.50;92.10
68764;DHT22;55754;52.038;5.566;2023-01-15T07:52:28;6.50;92.20
68764;DHT22;55754;52.038;5.566;2023-01-15T07:54:53;6.50;92.20
68764;DHT22;55754;52.038;5.566;2023-01-15T07:57:20;6.40;92.20
68764;DHT22;55754;52.038;5.566;2023-01-15T07:59:47;6.40;92.20
68764;DHT22;55754;52.038;5.566;2023-01-15T08:02:12;6.40;92.40
68764;DHT22;55754;52.038;5.566;2023-01-15T08:04:38;6.40;92.40
68764;DHT22;55754;52.038;5.566;2023-01-15T08:07:04;6.40;92.30
68764;DHT22;55754;52.038;5.566;2023-01-15T08:09:30;6.40;92.20
68764;DHT22;55754;52.038;5.566;2023-01-15T08:12:00;6.40;92.30
68764;DHT22;55754;52.038;5.566;2023-01-15T08:14:44;6.40;92.40
68764;DHT22;55754;52.038;5.566;2023-01-15T08:17:29;6.40;92.40
68764;DHT22;55754;52.038;5.566;2023-01-15T08:19:55;6.40;92.20
68764;DHT22;55754;52.038;5.566;2023-01-15T08:22:20;6.40;92.10
68764;DHT22;55754;52.038;5.566;2023-01-15T08:24:46;6.40;91.90
68764;DHT22;55754;52.038;5.566;2023-01-15T08:27:14;6.40;91.40
68764;DHT22;55754;52.038;5.566;2023-01-15T08:29:40;6.50;91.70
68764;DHT22;55754;52.038;5.566;2023-01-15T08:32:05;6.50;91.40
68764;DHT22;55754;52.038;5.566;2023-01-15T08:34:31;6.50;91.60
68764;DHT22;55754;52.038;5.566;2023-01-15T08:36:56;6.70;91.50
68764;DHT22;55754;52.038;5.566;2023-01-15T08:39:25;6.70;90.30
68764;DHT22;55754;52.038;5.566;2023-01-15T08:41:51;6.80;90.10
68764;DHT22;55754;52.038;5.566;2023-01-15T08:44:23;6.90;90.20
68764;DHT22;55754;52.038;5.566;2023-01-15T08:46:50;7.00;90.60
68764;DHT22;55754;52.038;5.566;2023-01-15T08:49:16;7.00;89.40
68764;DHT22;55754;52.038;5.566;2023-01-15T08:51:43;7.10;88.40
68764;DHT22;55754;52.038;5.566;2023-01-15T08:54:10;7.10;86.60
68764;DHT22;55754;52.038;5.566;2023-01-15T08:56:36;7.20;87.90
68764;DHT22;55754;52.038;5.566;2023-01-15T08:59:05;7.30;88.20
68764;DHT22;55754;52.038;5.566;2023-01-15T09:01:32;7.20;86.50
68764;DHT22;55754;52.038;5.566;2023-01-15T09:03:58;7.30;86.10
68764;DHT22;55754;52.038;5.566;2023-01-15T09:06:24;7.30;85.10
68764;DHT22;55754;52.038;5.566;2023-01-15T09:08:50;7.30;86.30
68764;DHT22;55754;52.038;5.566;2023-01-15T09:11:15;7.30;84.60
68764;DHT22;55754;52.038;5.566;2023-01-15T09:13:41;7.40;85.20
68764;DHT22;55754;52.038;5.566;2023-01-15T09:16:07;7.50;84.50
68764;DHT22;55754;52.038;5.566;2023-01-15T09:18:36;7.60;83.50
68764;DHT22;55754;52.038;5.566;2023-01-15T09:21:01;7.70;83.00
68764;DHT22;55754;52.038;5.566;2023-01-15T09:23:28;7.70;83.30
68764;DHT22;55754;52.038;5.566;2023-01-15T09:25:55;7.80;82.60
68764;DHT22;55754;52.038;5.566;2023-01-15T09:28:21;7.80;80.60
68764;DHT22;55754;52.038;5.566;2023-01-15T09:30:47;7.90;81.30
68764;DHT22;55754;52.038;5.566;2023-01-15T09:33:13;8.00;81.00
68764;DHT22;55754;52.038;5.566;2023-01-15T09:35:39;8.00;79.70
68764;DHT22;55754;52.038;5.566;2023-01-15T09:38:05;8.00;80.50
68764;DHT22;55754;52.038;5.566;2023-01-15T09:40:49;8.00;79.90
68764;DHT22;55754;52.038;5.566;2023-01-15T09:43:45;8.10;79.20
68764;DHT22;55754;52.038;5.566;2023-01-15T09:46:34;8.10;79.80
68764;DHT22;55754;52.038;5.566;2023-01-15T09:49:33;8.20;79.70
68764;DHT22;55754;52.038;5.566;2023-01-15T09:57:31;8.30;77.70
68764;DHT22;55754;52.038;5.566;2023-01-15T10:00:03;8.20;79.00
68764;DHT22;55754;52.038;5.566;2023-01-15T10:02:44;8.20;79.20
68764;DHT22;55754;52.038;5.566;2023-01-15T10:05:17;8.20;79.40
68764;DHT22;55754;52.038;5.566;2023-01-15T10:10:19;8.30;78.70
68764;DHT22;55754;52.038;5.566;2023-01-15T10:12:49;8.40;79.60
68764;DHT22;55754;52.038;5.566;2023-01-15T10:15:40;8.40;78.60
68764;DHT22;55754;52.038;5.566;2023-01-15T10:18:06;8.50;76.20
68764;DHT22;55754;52.038;5.566;2023-01-15T10:23:35;8.60;77.70
68764;DHT22;55754;52.038;5.566;2023-01-15T10:31:20;8.70;77.10
68764;DHT22;55754;52.038;5.566;2023-01-15T10:36:47;8.80;76.50
68764;DHT22;55754;52.038;5.566;2023-01-15T10:39:33;8.90;75.10
68764;DHT22;55754;52.038;5.566;2023-01-15T10:47:32;8.50;76.50
68764;DHT22;55754;52.038;5.566;2023-01-15T10:50:01;8.50;77.50
68764;DHT22;55754;52.038;5.566;2023-01-15T10:52:36;8.30;75.90
68764;DHT22;55754;52.038;5.566;2023-01-15T10:55:23;8.30;77.50
68764;DHT22;55754;52.038;5.566;2023-01-15T10:57:59;8.20;76.70
68764;DHT22;55754;52.038;5.566;2023-01-15T11:00:28;8.20;76.30
68764;DHT22;55754;52.038;5.566;2023-01-15T11:03:01;8.20;77.50
68764;DHT22;55754;52.038;5.566;2023-01-15T11:05:31;8.40;77.40
68764;DHT22;55754;52.038;5.566;2023-01-15T11:07:58;8.40;76.80
68764;DHT22;55754;52.038;5.566;2023-01-15T11:10:27;8.50;77.30
68764;DHT22;55754;52.038;5.566;2023-01-15T11:12:56;8.60;78.00
68764;DHT22;55754;52.038;5.566;2023-01-15T11:15:45;8.80;78.00
68764;DHT22;55754;52.038;5.566;2023-01-15T11:18:38;8.80;76.70
68764;DHT22;55754;52.038;5.566;2023-01-15T11:21:23;8.70;76.90
68764;DHT22;55754;52.038;5.566;2023-01-15T11:23:50;8.70;77.20
68764;DHT22;55754;52.038;5.566;2023-01-15T11:26:26;8.60;77.80
68764;DHT22;55754;52.038;5.566;2023-01-15T11:28:56;8.60;78.40
68764;DHT22;55754;52.038;5.566;2023-01-15T11:31:35;8.50;79.00
68764;DHT22;55754;52.038;5.566;2023-01-15T11:34:03;8.60;78.30
68764;DHT22;55754;52.038;5.566;2023-01-15T11:36:30;8.50;79.10
68764;DHT22;55754;52.038;5.566;2023-01-15T11:38:56;8.60;78.90
68764;DHT22;55754;52.038;5.566;2023-01-15T11:41:27;8.50;79.60
68764;DHT22;55754;52.038;5.566;2023-01-15T11:44:13;8.50;79.20
68764;DHT22;55754;52.038;5.566;2023-01-15T11:46:57;8.50;79.90
68764;DHT22;55754;52.038;5.566;2023-01-15T11:49:50;8.50;80.20
68764;DHT22;55754;52.038;5.566;2023-01-15T11:52:37;8.40;82.20
68764;DHT22;55754;52.038;5.566;2023-01-15T11:55:13;8.30;83.40
68764;DHT22;55754;52.038;5.566;2023-01-15T11:57:40;8.30;84.40
68764;DHT22;55754;52.038;5.566;2023-01-15T12:00:13;8.20;85.30
68764;DHT22;55754;52.038;5.566;2023-01-15T12:02:44;8.20;85.70
68764;DHT22;55754;52.038;5.566;2023-01-15T12:05:19;8.20;86.20
68764;DHT22;55754;52.038;5.566;2023-01-15T12:07:46;8.20;86.80
68764;DHT22;55754;52.038;5.566;2023-01-15T12:10:17;8.20;86.80
68764;DHT22;55754;52.038;5.566;2023-01-15T12:27:38;8.30;84.50
68764;DHT22;55754;52.038;5.566;2023-01-15T12:31:03;8.30;85.10
68764;DHT22;55754;52.038;5.566;2023-01-15T12:36:18;8.20;88.50
68764;DHT22;55754;52.038;5.566;2023-01-15T12:39:03;8.10;88.50
68764;DHT22;55754;52.038;5.566;2023-01-15T12:41:34;8.10;89.20
68764;DHT22;55754;52.038;5.566;2023-01-15T12:44:26;8.10;88.80
68764;DHT22;55754;52.038;5.566;2023-01-15T12:47:19;8.10;89.20
68764;DHT22;55754;52.038;5.566;2023-01-15T12:50:03;8.00;90.20
68764;DHT22;55754;52.038;5.566;2023-01-15T12:52:36;7.90;90.80
68764;DHT22;55754;52.038;5.566;2023-01-15T12:55:20;7.90;90.90
68764;DHT22;55754;52.038;5.566;2023-01-15T12:57:50;7.70;92.40
68764;DHT22;55754;52.038;5.566;2023-01-15T13:00:29;7.60;92.50
68764;DHT22;55754;52.038;5.566;2023-01-15T13:05:59;7.50;94.40
68764;DHT22;55754;52.038;5.566;2023-01-15T13:08:48;7.50;94.10
68764;DHT22;55754;52.038;5.566;2023-01-15T13:11:15;7.50;93.90
68764;DHT22;55754;52.038;5.566;2023-01-15T13:13:41;7.50;94.60
68764;DHT22;55754;52.038;5.566;2023-01-15T13:19:05;7.50;94.50
68764;DHT22;55754;52.038;5.566;2023-01-15T13:21:35;7.50;95.20
68764;DHT22;55754;52.038;5.566;2023-01-15T13:27:04;7.50;95.10
68764;DHT22;55754;52.038;5.566;2023-01-15T13:32:33;7.60;95.20
68764;DHT22;55754;52.038;5.566;2023-01-15T13:35:35;7.50;95.40
68764;DHT22;55754;52.038;5.566;2023-01-15T13:38:04;7.50;96.50
68764;DHT22;55754;52.038;5.566;2023-01-15T13:40:37;7.50;95.90
68764;DHT22;55754;52.038;5.566;2023-01-15T13:43:06;7.50;96.40
68764;DHT22;55754;52.038;5.566;2023-01-15T13:45:40;7.50;96.10
68764;DHT22;55754;52.038;5.566;2023-01-15T13:50:59;7.50;95.90
68764;DHT22;55754;52.038;5.566;2023-01-15T13:53:44;7.50;95.90
68764;DHT22;55754;52.038;5.566;2023-01-15T13:56:11;7.50;95.90
68764;DHT22;55754;52.038;5.566;2023-01-15T13:58:51;7.50;95.70
68764;DHT22;55754;52.038;5.566;2023-01-15T14:04:30;7.50;96.00
68764;DHT22;55754;52.038;5.566;2023-01-15T14:06:56;7.50;95.80
68764;DHT22;55754;52.038;5.566;2023-01-15T14:12:16;7.60;95.40
68764;DHT22;55754;52.038;5.566;2023-01-15T14:15:14;7.70;96.10
68764;DHT22;55754;52.038;5.566;2023-01-15T14:26:38;7.80;95.20
68764;DHT22;55754;52.038;5.566;2023-01-15T14:32:15;7.80;94.90
68764;DHT22;55754;52.038;5.566;2023-01-15T14:34:54;7.70;94.90
68764;DHT22;55754;52.038;5.566;2023-01-15T14:37:34;7.70;94.80
68764;DHT22;55754;52.038;5.566;2023-01-15T14:40:05;7.70;94.70
68764;DHT22;55754;52.038;5.566;2023-01-15T14:42:37;7.70;94.60
68764;DHT22;55754;52.038;5.566;2023-01-15T14:48:01;7.70;94.10
68764;DHT22;55754;52.038;5.566;2023-01-15T14:50:39;7.60;93.80
68764;DHT22;55754;52.038;5.566;2023-01-15T14:53:29;7.60;93.80
68764;DHT22;55754;52.038;5.566;2023-01-15T14:59:19;7.60;93.90
68764;DHT22;55754;52.038;5.566;2023-01-15T15:07:07;7.60;94.50
68764;DHT22;55754;52.038;5.566;2023-01-15T15:12:38;7.60;94.60
68764;DHT22;55754;52.038;5.566;2023-01-15T15:18:06;7.60;94.60
68764;DHT22;55754;52.038;5.566;2023-01-15T15:20:54;7.60;94.50
68764;DHT22;55754;52.038;5.566;2023-01-15T15:23:25;7.60;94.10
68764;DHT22;55754;52.038;5.566;2023-01-15T15:26:01;7.60;94.30
68764;DHT22;55754;52.038;5.566;2023-01-15T15:28:29;7.60;94.30
68764;DHT22;55754;52.038;5.566;2023-01-15T15:30:56;7.60;94.30
68764;DHT22;55754;52.038;5.566;2023-01-15T15:33:29;7.60;94.20
68764;DHT22;55754;52.038;5.566;2023-01-15T15:36:00;7.60;94.10
68764;DHT22;55754;52.038;5.566;2023-01-15T15:38:26;7.50;93.80
68764;DHT22;55754;52.038;5.566;2023-01-15T15:40:55;7.50;94.00
68764;DHT22;55754;52.038;5.566;2023-01-15T15:43:43;7.40;93.90
68764;DHT22;55754;52.038;5.566;2023-01-15T15:46:30;7.40;94.80
68764;DHT22;55754;52.038;5.566;2023-01-15T15:49:15;7.40;95.40
68764;DHT22;55754;52.038;5.566;2023-01-15T15:51:52;7.40;95.70
68764;DHT22;55754;52.038;5.566;2023-01-15T15:56:51;7.40;96.20
68764;DHT22;55754;52.038;5.566;2023-01-15T15:59:26;7.40;96.30
68764;DHT22;55754;52.038;5.566;2023-01-15T16:01:53;7.30;96.50
68764;DHT22;55754;52.038;5.566;2023-01-15T16:04:19;7.40;96.50
68764;DHT22;55754;52.038;5.566;2023-01-15T16:06:45;7.40;96.80
68764;DHT22;55754;52.038;5.566;2023-01-15T16:09:22;7.40;96.80
68764;DHT22;55754;52.038;5.566;2023-01-15T16:11:50;7.40;97.20
68764;DHT22;55754;52.038;5.566;2023-01-15T16:14:17;7.40;97.00
68764;DHT22;55754;52.038;5.566;2023-01-15T16:16:45;7.40;96.80
68764;DHT22;55754;52.038;5.566;2023-01-15T16:19:17;7.40;96.80
68764;DHT22;55754;52.038;5.566;2023-01-15T16:21:44;7.40;97.00
68764;DHT22;55754;52.038;5.566;2023-01-15T16:24:27;7.30;97.10
68764;DHT22;55754;52.038;5.566;2023-01-15T16:26:57;7.40;97.70
68764;DHT22;55754;52.038;5.566;2023-01-15T16:29:28;7.40;97.50
68764;DHT22;55754;52.038;5.566;2023-01-15T16:31:55;7.40;97.70
68764;DHT22;55754;52.038;5.566;2023-01-15T16:34:24;7.40;97.60
68764;DHT22;55754;52.038;5.566;2023-01-15T16:36:50;7.40;98.00
68764;DHT22;55754;52.038;5.566;2023-01-15T16:39:23;7.30;97.90
68764;DHT22;55754;52.038;5.566;2023-01-15T16:41:53;7.30;97.80
68764;DHT22;55754;52.038;5.566;2023-01-15T16:46:58;7.20;97.90
68764;DHT22;55754;52.038;5.566;2023-01-15T16:49:27;7.20;97.70
68764;DHT22;55754;52.038;5.566;2023-01-15T16:51:55;7.20;97.60
68764;DHT22;55754;52.038;5.566;2023-01-15T16:57:00;7.20;97.10
68764;DHT22;55754;52.038;5.566;2023-01-15T17:01:53;7.10;97.30
68764;DHT22;55754;52.038;5.566;2023-01-15T17:06:56;7.20;97.10
68764;DHT22;55754;52.038;5.566;2023-01-15T17:09:22;7.10;96.90
68764;DHT22;55754;52.038;5.566;2023-01-15T17:11:49;7.10;97.00
68764;DHT22;55754;52.038;5.566;2023-01-15T17:14:24;7.10;97.00
68764;DHT22;55754;52.038;5.566;2023-01-15T17:17:23;7.10;97.20
68764;DHT22;55754;52.038;5.566;2023-01-15T17:19:50;7.10;97.30
68764;DHT22;55754;52.038;5.566;2023-01-15T17:22:38;8.60;97.30
68764;DHT22;55754;52.038;5.566;2023-01-15T17:25:24;7.10;96.90
68764;DHT22;55754;52.038;5.566;2023-01-15T17:27:54;7.10;96.80
68764;DHT22;55754;52.038;5.566;2023-01-15T17:30:20;7.10;96.60
68764;DHT22;55754;52.038;5.566;2023-01-15T17:32:47;7.10;96.60
68764;DHT22;55754;52.038;5.566;2023-01-15T17:37:49;7.00;96.60
68764;DHT22;55754;52.038;5.566;2023-01-15T17:40:15;7.00;96.10
68764;DHT22;55754;52.038;5.566;2023-01-15T17:42:40;7.00;96.60
68764;DHT22;55754;52.038;5.566;2023-01-15T17:45:15;6.90;96.10
68764;DHT22;55754;52.038;5.566;2023-01-15T17:47:41;7.00;96.10
68764;DHT22;55754;52.038;5.566;2023-01-15T17:50:10;6.90;95.90
68764;DHT22;55754;52.038;5.566;2023-01-15T17:52:37;6.90;95.90
68764;DHT22;55754;52.038;5.566;2023-01-15T17:55:03;6.90;95.60
68764;DHT22;55754;52.038;5.566;2023-01-15T17:57:47;6.90;95.80
68764;DHT22;55754;52.038;5.566;2023-01-15T18:00:31;6.90;95.70
68764;DHT22;55754;52.038;5.566;2023-01-15T18:03:19;6.80;95.80
68764;DHT22;55754;52.038;5.566;2023-01-15T18:06:07;6.80;95.70
68764;DHT22;55754;52.038;5.566;2023-01-15T18:08:34;6.80;95.70
68764;DHT22;55754;52.038;5.566;2023-01-15T18:11:00;6.80;95.70
68764;DHT22;55754;52.038;5.566;2023-01-15T18:13:25;6.80;95.70